This is the latest recevied weather packets stored in our database for station/object LRCL. If no packets are shown the sender has not sent any weather packets the latest 1 day(s).
| Time | Temp. | Humidity | Pressure | Rain* | Wind** | Luminosity | Snow |
|---|---|---|---|---|---|---|---|
| 1778002388 | 20° C | 30% | 1011 hPa | - | 0 m/s | - | - |
| 1778001488 | 23.89° C | 22% | 1011 hPa | - | 1.34 m/s, 130° | - | - |
| 1778000588 | 23.89° C | 22% | 1011 hPa | - | 1.34 m/s, 130° | - | - |
| 1777999688 | 25° C | 19% | 1011 hPa | - | 2.68 m/s, 140° | - | - |
| 1777998788 | 25° C | 19% | 1011 hPa | - | 2.68 m/s, 140° | - | - |
| 1777997888 | 25° C | 21% | 1012 hPa | - | 2.68 m/s, 150° | - | - |
| 1777996988 | 25° C | 21% | 1012 hPa | - | 2.68 m/s, 150° | - | - |
| 1777996088 | 26.11° C | 18% | 1012 hPa | - | 2.68 m/s, 140° | - | - |
| 1777995188 | 26.11° C | 18% | 1012 hPa | - | 2.68 m/s, 140° | - | - |
| 1777994296 | 26.11° C | 16% | 1012 hPa | - | 3.58 m/s, 120° | - | - |
| 1777993388 | 26.11° C | 16% | 1012 hPa | - | 3.58 m/s, 120° | - | - |
| 1777992488 | 26.11° C | 20% | 1012 hPa | - | 3.58 m/s, 160° | - | - |
| 1777991588 | 26.11° C | 20% | 1012 hPa | - | 3.58 m/s, 160° | - | - |
| 1777990688 | 26.11° C | 18% | 1013 hPa | - | 2.68 m/s, 160° | - | - |
| 1777989788 | 26.11° C | 18% | 1013 hPa | - | 2.68 m/s, 160° | - | - |
| 1777988927 | 26.11° C | 18% | 1013 hPa | - | 3.58 m/s, 120° | - | - |
| 1777987988 | 26.11° C | 18% | 1013 hPa | - | 3.58 m/s, 120° | - | - |
| 1777987088 | 26.11° C | 21% | 1013 hPa | - | 3.58 m/s, 130° | - | - |
| 1777986188 | 26.11° C | 21% | 1013 hPa | - | 3.58 m/s, 130° | - | - |
| 1777985288 | 26.11° C | 20% | 1013 hPa | - | 3.58 m/s, 120° | - | - |
| 1777984388 | 26.11° C | 20% | 1013 hPa | - | 3.58 m/s, 120° | - | - |
| 1777983488 | 26.11° C | 20% | 1014 hPa | - | 3.13 m/s, 110° | - | - |
| 1777982592 | 25° C | 26% | 1014 hPa | - | 2.68 m/s, 120° | - | - |
| 1777981695 | 25° C | 26% | 1014 hPa | - | 2.68 m/s, 120° | - | - |
| 1777980818 | 25° C | 26% | 1014 hPa | - | 2.68 m/s, 120° | - | - |
* Rain since midnight (hover to see other rain measurements)
** Current wind speed in m/s (hover to see current wind gust speed)